Wichita, KS (67209)

9:40 PM CDT on September 14, 2014 (GMT -0500)
Near the airport | Change Station
CLOSE
Current Station
Personal Weather Station
Location: Wichita, KS
Elevation: 1348 ft
Nearby Weather Stations

Elev 1348 ft 37.65 °N, 97.44 °W | Updated 3 seconds ago

Partly Cloudy
Partly Cloudy
71.9 °F
Feels Like 75 °F
N
11.0
Wind Variable Wind from South
Gusts 18.0 mph

Today
High -- | Low -- °F
--% Chance of Precip.
Yesterday
High -- | Low -- °F
Precip. -- in
7:10 AM 7:38 PM
Waning Gibbous, 60% visible
Pressure 30.02 in
Visibility 10.0 miles
Clouds Few 15000 ft
Heat Index 75 °F
Dew Point 61 °F
Humidity 69%
Rainfall 0.00 in
Snow Depth Not available.
UV 0 out of 12
Pollen 9.10 out of 12
Air Quality Not available.
Flu Activity Not available.
METAR KICT 150153Z 17012KT 10SM FEW150 23/16 A3004 RMK AO2 SLP164 T02330156

More Conditions Fewer Conditions

Pressure 30.02 in
Visibility 10.0 miles
Clouds Few 15000 ft
Heat Index 75 °F
Dew Point 61 °F
Humidity 69%
Rainfall 0.00 in
Snow Depth Not available.
UV 0 out of 12
Pollen 9.10 out of 12
Air Quality Not available.
Flu Activity Not available.
METAR KICT 150153Z 17012KT 10SM FEW150 23/16 A3004 RMK AO2 SLP164 T02330156

More Conditions Fewer Conditions

10-Day Weather Forecast

Almanac

Astronomy

Sep. 14, 2014 Rise Set
Actual Time 7:10 AM CDT 7:38 PM CDT
Civil Twilight 6:44 AM CDT 8:05 PM CDT
Nautical Twilight 6:13 AM CDT 8:36 PM CDT
Astronomical Twilight 5:41 AM CDT 9:07 PM CDT
Moon 11:39 PM CDT (9/14) 1:11 PM CDT (9/14)
Length of Visible Light 13h 20m
Length of Day
12h 28m
Tomorrow will be 2m 23s shorter.
Waning Gibbous, 60% of the Moon is Illuminated
Today
Waning Gibbous
Sep 15
Last Quarter
Sep 24
New
Oct 1
First Quarter
Oct 8
Full

Today's Extremes

State Highs State Lows

Community

WunderPhotos

Upload Photos

1,753,385 photos uploaded!

Nearby

Snow Depth

Station Depth Elevation
No new snow has been reported.

Earthquake Activity

City Distance Mag. Time & Date
Guthrie, Oklahoma 127 miles 3.0 7:11 PM CDT
2014-09-14
Enid, Oklahoma 78 miles 3.6 7:01 AM CDT
2014-09-14
Perry, Oklahoma 102 miles 3.3 11:10 PM CDT
2014-09-13
Perry, Oklahoma 103 miles 2.8 10:52 PM CDT
2014-09-13
Minimum magnitude displayed is 2.5.

Coastal Water Temperatures

Place Temperature
No Stations Reporting

Nearby Weather Stations